sensor_id;sensor_type;location;lat;lon;timestamp;P1;durP1;ratioP1;P2;durP2;ratioP2
69754;SDS011;57023;52.218;5.158;2023-04-24T00:00:15;5.95;;;3.28;;
69754;SDS011;57023;52.218;5.158;2023-04-24T00:02:44;4.22;;;2.30;;
69754;SDS011;57023;52.218;5.158;2023-04-24T00:05:15;3.30;;;1.95;;
69754;SDS011;57023;52.218;5.158;2023-04-24T00:07:42;3.05;;;1.80;;
69754;SDS011;57023;52.218;5.158;2023-04-24T00:10:08;3.00;;;1.80;;
69754;SDS011;57023;52.218;5.158;2023-04-24T00:12:34;2.97;;;1.90;;
69754;SDS011;57023;52.218;5.158;2023-04-24T00:14:59;4.25;;;2.17;;
69754;SDS011;57023;52.218;5.158;2023-04-24T00:17:25;5.18;;;2.58;;
69754;SDS011;57023;52.218;5.158;2023-04-24T00:19:50;4.07;;;2.63;;
69754;SDS011;57023;52.218;5.158;2023-04-24T00:22:16;3.28;;;2.22;;
69754;SDS011;57023;52.218;5.158;2023-04-24T00:24:42;2.78;;;1.70;;
69754;SDS011;57023;52.218;5.158;2023-04-24T00:27:07;2.55;;;1.45;;
69754;SDS011;57023;52.218;5.158;2023-04-24T00:29:32;2.53;;;1.65;;
69754;SDS011;57023;52.218;5.158;2023-04-24T00:31:58;2.40;;;1.60;;
69754;SDS011;57023;52.218;5.158;2023-04-24T00:34:23;3.95;;;2.00;;
69754;SDS011;57023;52.218;5.158;2023-04-24T00:36:48;4.90;;;2.38;;
69754;SDS011;57023;52.218;5.158;2023-04-24T00:39:17;5.80;;;2.78;;
69754;SDS011;57023;52.218;5.158;2023-04-24T00:41:45;4.63;;;2.60;;
69754;SDS011;57023;52.218;5.158;2023-04-24T00:44:14;4.97;;;2.80;;
69754;SDS011;57023;52.218;5.158;2023-04-24T00:46:39;7.60;;;4.05;;
69754;SDS011;57023;52.218;5.158;2023-04-24T00:49:05;5.60;;;3.15;;
69754;SDS011;57023;52.218;5.158;2023-04-24T00:51:31;5.00;;;3.60;;
69754;SDS011;57023;52.218;5.158;2023-04-24T00:53:57;7.73;;;3.73;;
69754;SDS011;57023;52.218;5.158;2023-04-24T00:56:25;5.70;;;3.35;;
69754;SDS011;57023;52.218;5.158;2023-04-24T00:58:54;5.53;;;3.10;;
69754;SDS011;57023;52.218;5.158;2023-04-24T01:01:20;5.60;;;3.10;;
69754;SDS011;57023;52.218;5.158;2023-04-24T01:03:47;5.18;;;2.95;;
69754;SDS011;57023;52.218;5.158;2023-04-24T01:06:15;4.30;;;2.45;;
69754;SDS011;57023;52.218;5.158;2023-04-24T01:08:40;5.68;;;2.90;;
69754;SDS011;57023;52.218;5.158;2023-04-24T01:11:06;6.65;;;2.80;;
69754;SDS011;57023;52.218;5.158;2023-04-24T01:13:32;5.53;;;2.50;;
69754;SDS011;57023;52.218;5.158;2023-04-24T01:15:58;5.05;;;2.40;;
69754;SDS011;57023;52.218;5.158;2023-04-24T01:18:23;4.47;;;2.10;;
69754;SDS011;57023;52.218;5.158;2023-04-24T01:20:48;4.10;;;2.00;;
69754;SDS011;57023;52.218;5.158;2023-04-24T01:23:16;3.08;;;2.03;;
69754;SDS011;57023;52.218;5.158;2023-04-24T01:25:41;4.63;;;2.13;;
69754;SDS011;57023;52.218;5.158;2023-04-24T01:28:07;3.63;;;2.17;;
69754;SDS011;57023;52.218;5.158;2023-04-24T01:30:33;7.30;;;2.50;;
69754;SDS011;57023;52.218;5.158;2023-04-24T01:32:58;5.10;;;2.60;;
69754;SDS011;57023;52.218;5.158;2023-04-24T01:35:23;5.10;;;2.70;;
69754;SDS011;57023;52.218;5.158;2023-04-24T01:37:49;4.50;;;2.90;;
69754;SDS011;57023;52.218;5.158;2023-04-24T01:40:15;5.68;;;3.05;;
69754;SDS011;57023;52.218;5.158;2023-04-24T01:42:41;5.55;;;2.70;;
69754;SDS011;57023;52.218;5.158;2023-04-24T01:45:06;5.18;;;2.88;;
69754;SDS011;57023;52.218;5.158;2023-04-24T01:47:35;6.15;;;3.00;;
69754;SDS011;57023;52.218;5.158;2023-04-24T01:50:00;4.78;;;2.90;;
69754;SDS011;57023;52.218;5.158;2023-04-24T01:52:26;7.75;;;3.38;;
69754;SDS011;57023;52.218;5.158;2023-04-24T01:54:52;5.20;;;3.00;;
69754;SDS011;57023;52.218;5.158;2023-04-24T01:57:17;4.75;;;2.60;;
69754;SDS011;57023;52.218;5.158;2023-04-24T01:59:42;4.80;;;2.70;;
69754;SDS011;57023;52.218;5.158;2023-04-24T02:02:08;4.82;;;2.70;;
69754;SDS011;57023;52.218;5.158;2023-04-24T02:04:36;3.90;;;2.40;;
69754;SDS011;57023;52.218;5.158;2023-04-24T02:07:01;4.90;;;2.40;;
69754;SDS011;57023;52.218;5.158;2023-04-24T02:09:27;5.50;;;2.58;;
69754;SDS011;57023;52.218;5.158;2023-04-24T02:11:52;4.50;;;2.42;;
69754;SDS011;57023;52.218;5.158;2023-04-24T02:14:17;4.47;;;2.45;;
69754;SDS011;57023;52.218;5.158;2023-04-24T02:16:43;5.22;;;2.38;;
69754;SDS011;57023;52.218;5.158;2023-04-24T02:19:08;5.50;;;2.80;;
69754;SDS011;57023;52.218;5.158;2023-04-24T02:21:34;4.30;;;2.50;;
69754;SDS011;57023;52.218;5.158;2023-04-24T02:23:59;5.30;;;2.33;;
69754;SDS011;57023;52.218;5.158;2023-04-24T02:26:25;3.40;;;2.10;;
69754;SDS011;57023;52.218;5.158;2023-04-24T02:28:53;3.33;;;2.03;;
69754;SDS011;57023;52.218;5.158;2023-04-24T02:31:18;4.25;;;2.10;;
69754;SDS011;57023;52.218;5.158;2023-04-24T02:33:47;3.13;;;1.70;;
69754;SDS011;57023;52.218;5.158;2023-04-24T02:36:12;5.25;;;1.80;;
69754;SDS011;57023;52.218;5.158;2023-04-24T02:38:38;3.72;;;2.08;;
69754;SDS011;57023;52.218;5.158;2023-04-24T02:41:03;4.03;;;2.15;;
69754;SDS011;57023;52.218;5.158;2023-04-24T02:43:31;5.10;;;2.30;;
69754;SDS011;57023;52.218;5.158;2023-04-24T02:45:56;5.40;;;2.50;;
69754;SDS011;57023;52.218;5.158;2023-04-24T02:48:21;5.18;;;2.47;;
69754;SDS011;57023;52.218;5.158;2023-04-24T02:50:47;5.72;;;2.55;;
69754;SDS011;57023;52.218;5.158;2023-04-24T02:53:12;5.45;;;2.80;;
69754;SDS011;57023;52.218;5.158;2023-04-24T02:55:38;6.53;;;2.90;;
69754;SDS011;57023;52.218;5.158;2023-04-24T02:58:03;5.82;;;2.60;;
69754;SDS011;57023;52.218;5.158;2023-04-24T03:00:28;7.20;;;3.20;;
69754;SDS011;57023;52.218;5.158;2023-04-24T03:02:54;6.53;;;2.80;;
69754;SDS011;57023;52.218;5.158;2023-04-24T03:05:19;5.15;;;2.60;;
69754;SDS011;57023;52.218;5.158;2023-04-24T03:07:45;9.93;;;3.15;;
69754;SDS011;57023;52.218;5.158;2023-04-24T03:10:10;6.05;;;3.08;;
69754;SDS011;57023;52.218;5.158;2023-04-24T03:12:36;4.70;;;2.65;;
69754;SDS011;57023;52.218;5.158;2023-04-24T03:15:01;5.75;;;2.80;;
69754;SDS011;57023;52.218;5.158;2023-04-24T03:17:26;6.63;;;2.80;;
69754;SDS011;57023;52.218;5.158;2023-04-24T03:19:52;6.63;;;3.10;;
69754;SDS011;57023;52.218;5.158;2023-04-24T03:22:17;7.20;;;3.05;;
69754;SDS011;57023;52.218;5.158;2023-04-24T03:24:42;5.80;;;3.20;;
69754;SDS011;57023;52.218;5.158;2023-04-24T03:27:08;9.13;;;3.60;;
69754;SDS011;57023;52.218;5.158;2023-04-24T03:29:33;8.32;;;3.10;;
69754;SDS011;57023;52.218;5.158;2023-04-24T03:31:58;6.82;;;3.50;;
69754;SDS011;57023;52.218;5.158;2023-04-24T03:34:24;8.80;;;3.55;;
69754;SDS011;57023;52.218;5.158;2023-04-24T03:36:49;5.75;;;3.45;;
69754;SDS011;57023;52.218;5.158;2023-04-24T03:39:14;6.43;;;3.22;;
69754;SDS011;57023;52.218;5.158;2023-04-24T03:41:39;5.30;;;3.10;;
69754;SDS011;57023;52.218;5.158;2023-04-24T03:44:05;5.72;;;3.00;;
69754;SDS011;57023;52.218;5.158;2023-04-24T03:46:30;5.00;;;2.70;;
69754;SDS011;57023;52.218;5.158;2023-04-24T03:48:55;5.85;;;2.60;;
69754;SDS011;57023;52.218;5.158;2023-04-24T03:51:21;5.57;;;2.80;;
69754;SDS011;57023;52.218;5.158;2023-04-24T03:53:47;6.10;;;2.40;;
69754;SDS011;57023;52.218;5.158;2023-04-24T03:56:12;5.05;;;2.45;;
69754;SDS011;57023;52.218;5.158;2023-04-24T03:58:37;5.55;;;2.75;;
69754;SDS011;57023;52.218;5.158;2023-04-24T04:01:03;4.53;;;2.75;;
69754;SDS011;57023;52.218;5.158;2023-04-24T04:03:28;5.13;;;2.90;;
69754;SDS011;57023;52.218;5.158;2023-04-24T04:05:53;6.60;;;2.78;;
69754;SDS011;57023;52.218;5.158;2023-04-24T04:08:19;6.50;;;3.00;;
69754;SDS011;57023;52.218;5.158;2023-04-24T04:10:44;5.93;;;2.95;;
69754;SDS011;57023;52.218;5.158;2023-04-24T04:13:10;4.80;;;2.78;;
69754;SDS011;57023;52.218;5.158;2023-04-24T04:15:35;6.03;;;2.95;;
69754;SDS011;57023;52.218;5.158;2023-04-24T04:18:00;6.57;;;3.03;;
69754;SDS011;57023;52.218;5.158;2023-04-24T04:20:26;6.35;;;3.00;;
69754;SDS011;57023;52.218;5.158;2023-04-24T04:22:51;6.13;;;3.10;;
69754;SDS011;57023;52.218;5.158;2023-04-24T04:25:16;6.72;;;3.20;;
69754;SDS011;57023;52.218;5.158;2023-04-24T04:27:44;5.70;;;3.10;;
69754;SDS011;57023;52.218;5.158;2023-04-24T04:30:09;5.50;;;3.30;;
69754;SDS011;57023;52.218;5.158;2023-04-24T04:32:35;6.07;;;3.22;;
69754;SDS011;57023;52.218;5.158;2023-04-24T04:35:00;5.28;;;3.13;;
69754;SDS011;57023;52.218;5.158;2023-04-24T04:37:28;7.22;;;3.50;;
69754;SDS011;57023;52.218;5.158;2023-04-24T04:39:54;6.13;;;3.22;;
69754;SDS011;57023;52.218;5.158;2023-04-24T04:42:19;6.95;;;3.35;;
69754;SDS011;57023;52.218;5.158;2023-04-24T04:44:45;6.50;;;3.25;;
69754;SDS011;57023;52.218;5.158;2023-04-24T04:47:10;5.18;;;2.67;;
69754;SDS011;57023;52.218;5.158;2023-04-24T04:49:36;4.50;;;2.67;;
69754;SDS011;57023;52.218;5.158;2023-04-24T04:54:28;6.40;;;3.10;;
69754;SDS011;57023;52.218;5.158;2023-04-24T04:56:53;6.72;;;2.85;;
69754;SDS011;57023;52.218;5.158;2023-04-24T04:59:19;8.48;;;3.20;;
69754;SDS011;57023;52.218;5.158;2023-04-24T05:01:45;8.30;;;3.10;;
69754;SDS011;57023;52.218;5.158;2023-04-24T05:04:10;6.80;;;3.38;;
69754;SDS011;57023;52.218;5.158;2023-04-24T05:06:36;6.03;;;3.05;;
69754;SDS011;57023;52.218;5.158;2023-04-24T05:09:01;4.40;;;2.30;;
69754;SDS011;57023;52.218;5.158;2023-04-24T05:11:26;4.63;;;2.50;;
69754;SDS011;57023;52.218;5.158;2023-04-24T05:13:52;5.22;;;2.40;;
69754;SDS011;57023;52.218;5.158;2023-04-24T05:16:17;3.13;;;2.00;;
69754;SDS011;57023;52.218;5.158;2023-04-24T05:18:42;3.40;;;2.20;;
69754;SDS011;57023;52.218;5.158;2023-04-24T05:21:08;4.18;;;2.20;;
69754;SDS011;57023;52.218;5.158;2023-04-24T05:23:33;4.45;;;2.10;;
69754;SDS011;57023;52.218;5.158;2023-04-24T05:25:58;3.17;;;1.90;;
69754;SDS011;57023;52.218;5.158;2023-04-24T05:28:24;3.78;;;1.73;;
69754;SDS011;57023;52.218;5.158;2023-04-24T05:30:53;3.08;;;1.83;;
69754;SDS011;57023;52.218;5.158;2023-04-24T05:33:19;3.53;;;1.90;;
69754;SDS011;57023;52.218;5.158;2023-04-24T05:35:44;2.88;;;1.75;;
69754;SDS011;57023;52.218;5.158;2023-04-24T05:38:11;2.90;;;1.77;;
69754;SDS011;57023;52.218;5.158;2023-04-24T05:40:37;2.90;;;1.88;;
69754;SDS011;57023;52.218;5.158;2023-04-24T05:43:02;1.73;;;1.25;;
69754;SDS011;57023;52.218;5.158;2023-04-24T05:45:28;2.47;;;1.63;;
69754;SDS011;57023;52.218;5.158;2023-04-24T05:47:53;2.50;;;1.30;;
69754;SDS011;57023;52.218;5.158;2023-04-24T05:50:19;2.60;;;1.30;;
69754;SDS011;57023;52.218;5.158;2023-04-24T05:52:44;1.98;;;1.38;;
69754;SDS011;57023;52.218;5.158;2023-04-24T05:55:10;2.60;;;1.48;;
69754;SDS011;57023;52.218;5.158;2023-04-24T05:57:35;1.90;;;1.40;;
69754;SDS011;57023;52.218;5.158;2023-04-24T06:00:01;2.88;;;1.70;;
69754;SDS011;57023;52.218;5.158;2023-04-24T06:02:26;5.05;;;1.90;;
69754;SDS011;57023;52.218;5.158;2023-04-24T06:04:52;3.35;;;2.10;;
69754;SDS011;57023;52.218;5.158;2023-04-24T06:07:17;3.90;;;2.30;;
69754;SDS011;57023;52.218;5.158;2023-04-24T06:09:43;7.75;;;4.00;;
69754;SDS011;57023;52.218;5.158;2023-04-24T06:12:08;11.70;;;6.30;;
69754;SDS011;57023;52.218;5.158;2023-04-24T06:14:34;15.82;;;7.88;;
69754;SDS011;57023;52.218;5.158;2023-04-24T06:16:59;17.08;;;8.40;;
69754;SDS011;57023;52.218;5.158;2023-04-24T06:19:25;21.25;;;10.50;;
69754;SDS011;57023;52.218;5.158;2023-04-24T06:21:50;18.08;;;9.23;;
69754;SDS011;57023;52.218;5.158;2023-04-24T06:24:15;16.45;;;9.40;;
69754;SDS011;57023;52.218;5.158;2023-04-24T06:26:41;17.02;;;9.38;;
69754;SDS011;57023;52.218;5.158;2023-04-24T06:29:07;17.50;;;10.27;;
69754;SDS011;57023;52.218;5.158;2023-04-24T06:31:32;19.67;;;10.82;;
69754;SDS011;57023;52.218;5.158;2023-04-24T06:34:01;21.30;;;11.07;;
69754;SDS011;57023;52.218;5.158;2023-04-24T06:36:30;20.10;;;10.80;;
69754;SDS011;57023;52.218;5.158;2023-04-24T06:38:56;19.27;;;10.68;;
69754;SDS011;57023;52.218;5.158;2023-04-24T06:41:22;22.00;;;11.68;;
69754;SDS011;57023;52.218;5.158;2023-04-24T06:43:47;19.40;;;10.93;;
69754;SDS011;57023;52.218;5.158;2023-04-24T06:46:13;22.63;;;11.68;;
69754;SDS011;57023;52.218;5.158;2023-04-24T06:48:38;24.80;;;12.15;;
69754;SDS011;57023;52.218;5.158;2023-04-24T06:51:04;21.25;;;10.38;;
69754;SDS011;57023;52.218;5.158;2023-04-24T06:53:29;19.52;;;9.82;;
69754;SDS011;57023;52.218;5.158;2023-04-24T06:55:55;17.88;;;10.95;;
69754;SDS011;57023;52.218;5.158;2023-04-24T06:58:20;21.40;;;10.40;;
69754;SDS011;57023;52.218;5.158;2023-04-24T07:00:46;20.35;;;10.80;;
69754;SDS011;57023;52.218;5.158;2023-04-24T07:03:11;21.30;;;11.00;;
69754;SDS011;57023;52.218;5.158;2023-04-24T07:05:36;18.85;;;9.80;;
69754;SDS011;57023;52.218;5.158;2023-04-24T07:08:03;19.60;;;9.73;;
69754;SDS011;57023;52.218;5.158;2023-04-24T07:10:31;21.80;;;9.90;;
69754;SDS011;57023;52.218;5.158;2023-04-24T07:12:59;19.90;;;9.50;;
69754;SDS011;57023;52.218;5.158;2023-04-24T07:15:24;19.33;;;9.68;;
69754;SDS011;57023;52.218;5.158;2023-04-24T07:17:49;17.30;;;9.23;;
69754;SDS011;57023;52.218;5.158;2023-04-24T07:20:15;16.60;;;9.60;;
69754;SDS011;57023;52.218;5.158;2023-04-24T07:22:40;19.17;;;9.05;;
69754;SDS011;57023;52.218;5.158;2023-04-24T07:25:06;20.27;;;9.10;;
69754;SDS011;57023;52.218;5.158;2023-04-24T07:27:33;16.70;;;9.25;;
69754;SDS011;57023;52.218;5.158;2023-04-24T07:29:59;15.80;;;9.35;;
69754;SDS011;57023;52.218;5.158;2023-04-24T07:32:24;16.50;;;9.00;;
69754;SDS011;57023;52.218;5.158;2023-04-24T07:34:50;20.77;;;9.32;;
69754;SDS011;57023;52.218;5.158;2023-04-24T07:37:15;15.18;;;9.43;;
69754;SDS011;57023;52.218;5.158;2023-04-24T07:39:40;14.00;;;7.10;;
69754;SDS011;57023;52.218;5.158;2023-04-24T07:42:08;18.25;;;8.05;;
69754;SDS011;57023;52.218;5.158;2023-04-24T07:44:34;17.15;;;8.00;;
69754;SDS011;57023;52.218;5.158;2023-04-24T07:46:59;19.40;;;9.15;;
69754;SDS011;57023;52.218;5.158;2023-04-24T07:49:24;21.13;;;9.00;;
69754;SDS011;57023;52.218;5.158;2023-04-24T07:51:50;18.17;;;8.18;;
69754;SDS011;57023;52.218;5.158;2023-04-24T07:54:15;15.80;;;7.07;;
69754;SDS011;57023;52.218;5.158;2023-04-24T07:56:41;18.52;;;6.60;;
69754;SDS011;57023;52.218;5.158;2023-04-24T07:59:07;18.98;;;7.25;;
69754;SDS011;57023;52.218;5.158;2023-04-24T08:01:34;14.23;;;6.18;;
69754;SDS011;57023;52.218;5.158;2023-04-24T08:04:00;18.60;;;6.95;;
69754;SDS011;57023;52.218;5.158;2023-04-24T08:06:25;18.02;;;5.28;;
69754;SDS011;57023;52.218;5.158;2023-04-24T08:08:55;14.80;;;4.80;;
69754;SDS011;57023;52.218;5.158;2023-04-24T08:11:20;15.57;;;5.45;;
69754;SDS011;57023;52.218;5.158;2023-04-24T08:13:48;14.13;;;5.80;;
69754;SDS011;57023;52.218;5.158;2023-04-24T08:16:14;16.30;;;5.50;;
69754;SDS011;57023;52.218;5.158;2023-04-24T08:18:39;15.15;;;5.07;;
69754;SDS011;57023;52.218;5.158;2023-04-24T08:21:05;12.75;;;4.88;;
69754;SDS011;57023;52.218;5.158;2023-04-24T08:23:30;16.23;;;4.60;;
69754;SDS011;57023;52.218;5.158;2023-04-24T08:25:55;15.40;;;4.50;;
69754;SDS011;57023;52.218;5.158;2023-04-24T08:28:22;11.18;;;4.47;;
69754;SDS011;57023;52.218;5.158;2023-04-24T08:30:47;16.40;;;4.18;;
69754;SDS011;57023;52.218;5.158;2023-04-24T08:33:13;11.07;;;3.92;;
69754;SDS011;57023;52.218;5.158;2023-04-24T08:35:39;13.77;;;3.57;;
69754;SDS011;57023;52.218;5.158;2023-04-24T08:38:04;9.90;;;3.92;;
69754;SDS011;57023;52.218;5.158;2023-04-24T08:40:30;10.02;;;3.50;;
69754;SDS011;57023;52.218;5.158;2023-04-24T08:42:58;14.85;;;3.33;;
69754;SDS011;57023;52.218;5.158;2023-04-24T08:45:24;13.38;;;3.60;;
69754;SDS011;57023;52.218;5.158;2023-04-24T08:47:50;9.10;;;3.10;;
69754;SDS011;57023;52.218;5.158;2023-04-24T08:50:18;7.05;;;3.42;;
69754;SDS011;57023;52.218;5.158;2023-04-24T08:52:43;10.05;;;3.40;;
69754;SDS011;57023;52.218;5.158;2023-04-24T08:55:09;10.80;;;3.50;;
69754;SDS011;57023;52.218;5.158;2023-04-24T08:57:34;12.93;;;3.80;;
69754;SDS011;57023;52.218;5.158;2023-04-24T09:00:01;9.67;;;3.80;;
69754;SDS011;57023;52.218;5.158;2023-04-24T09:02:26;8.93;;;3.53;;
69754;SDS011;57023;52.218;5.158;2023-04-24T09:04:52;11.52;;;3.60;;
69754;SDS011;57023;52.218;5.158;2023-04-24T09:07:18;11.30;;;3.70;;
69754;SDS011;57023;52.218;5.158;2023-04-24T09:09:44;14.97;;;3.63;;
69754;SDS011;57023;52.218;5.158;2023-04-24T09:12:10;12.73;;;3.42;;
69754;SDS011;57023;52.218;5.158;2023-04-24T09:14:36;10.82;;;3.60;;
69754;SDS011;57023;52.218;5.158;2023-04-24T09:17:04;12.05;;;3.60;;
69754;SDS011;57023;52.218;5.158;2023-04-24T09:19:31;10.95;;;2.85;;
69754;SDS011;57023;52.218;5.158;2023-04-24T09:21:56;9.30;;;3.55;;
69754;SDS011;57023;52.218;5.158;2023-04-24T09:24:22;9.93;;;3.30;;
69754;SDS011;57023;52.218;5.158;2023-04-24T09:26:47;8.88;;;3.50;;
69754;SDS011;57023;52.218;5.158;2023-04-24T09:29:14;9.15;;;3.60;;
69754;SDS011;57023;52.218;5.158;2023-04-24T09:31:40;11.75;;;3.58;;
69754;SDS011;57023;52.218;5.158;2023-04-24T09:34:06;9.60;;;3.50;;
69754;SDS011;57023;52.218;5.158;2023-04-24T09:36:41;9.88;;;3.53;;
69754;SDS011;57023;52.218;5.158;2023-04-24T09:39:08;8.52;;;3.22;;
69754;SDS011;57023;52.218;5.158;2023-04-24T09:41:50;6.82;;;2.78;;
69754;SDS011;57023;52.218;5.158;2023-04-24T09:44:17;9.25;;;3.00;;
69754;SDS011;57023;52.218;5.158;2023-04-24T09:46:43;7.85;;;3.08;;
69754;SDS011;57023;52.218;5.158;2023-04-24T09:49:12;13.80;;;3.78;;
69754;SDS011;57023;52.218;5.158;2023-04-24T09:51:38;6.90;;;2.92;;
69754;SDS011;57023;52.218;5.158;2023-04-24T09:54:04;7.68;;;2.88;;
69754;SDS011;57023;52.218;5.158;2023-04-24T09:56:42;8.32;;;2.80;;
69754;SDS011;57023;52.218;5.158;2023-04-24T09:59:11;8.07;;;2.70;;
69754;SDS011;57023;52.218;5.158;2023-04-24T10:01:37;7.53;;;2.90;;
69754;SDS011;57023;52.218;5.158;2023-04-24T10:04:03;8.00;;;2.70;;
69754;SDS011;57023;52.218;5.158;2023-04-24T10:06:35;4.60;;;2.20;;
69754;SDS011;57023;52.218;5.158;2023-04-24T10:09:01;6.22;;;2.40;;
69754;SDS011;57023;52.218;5.158;2023-04-24T10:11:27;4.22;;;2.22;;
69754;SDS011;57023;52.218;5.158;2023-04-24T10:13:53;5.47;;;2.55;;
69754;SDS011;57023;52.218;5.158;2023-04-24T10:16:18;10.55;;;2.55;;
69754;SDS011;57023;52.218;5.158;2023-04-24T10:18:45;4.35;;;2.17;;
69754;SDS011;57023;52.218;5.158;2023-04-24T10:21:12;4.57;;;2.17;;
69754;SDS011;57023;52.218;5.158;2023-04-24T10:23:37;6.28;;;2.25;;
69754;SDS011;57023;52.218;5.158;2023-04-24T10:26:06;7.40;;;2.38;;
69754;SDS011;57023;52.218;5.158;2023-04-24T10:28:31;6.85;;;2.10;;
69754;SDS011;57023;52.218;5.158;2023-04-24T10:30:57;6.57;;;2.42;;
69754;SDS011;57023;52.218;5.158;2023-04-24T10:33:23;7.15;;;2.13;;
69754;SDS011;57023;52.218;5.158;2023-04-24T10:35:48;5.68;;;2.22;;
69754;SDS011;57023;52.218;5.158;2023-04-24T10:38:21;5.40;;;2.17;;
69754;SDS011;57023;52.218;5.158;2023-04-24T10:40:51;8.37;;;2.20;;
69754;SDS011;57023;52.218;5.158;2023-04-24T10:43:22;5.68;;;2.55;;
69754;SDS011;57023;52.218;5.158;2023-04-24T10:46:00;9.32;;;2.60;;
69754;SDS011;57023;52.218;5.158;2023-04-24T10:48:27;8.00;;;2.30;;
69754;SDS011;57023;52.218;5.158;2023-04-24T10:50:53;6.55;;;2.30;;
69754;SDS011;57023;52.218;5.158;2023-04-24T10:53:22;8.75;;;2.30;;
69754;SDS011;57023;52.218;5.158;2023-04-24T10:55:49;5.65;;;2.10;;
69754;SDS011;57023;52.218;5.158;2023-04-24T10:58:16;6.97;;;2.30;;
69754;SDS011;57023;52.218;5.158;2023-04-24T11:00:55;6.20;;;2.20;;
69754;SDS011;57023;52.218;5.158;2023-04-24T11:03:23;9.32;;;2.50;;
69754;SDS011;57023;52.218;5.158;2023-04-24T11:05:52;8.10;;;2.42;;
69754;SDS011;57023;52.218;5.158;2023-04-24T11:08:23;7.40;;;2.33;;
69754;SDS011;57023;52.218;5.158;2023-04-24T11:10:57;5.82;;;2.03;;
69754;SDS011;57023;52.218;5.158;2023-04-24T11:14:00;3.78;;;1.75;;
69754;SDS011;57023;52.218;5.158;2023-04-24T11:16:31;4.22;;;1.60;;
69754;SDS011;57023;52.218;5.158;2023-04-24T11:24:24;3.15;;;1.20;;
69754;SDS011;57023;52.218;5.158;2023-04-24T11:26:54;4.30;;;1.30;;
69754;SDS011;57023;52.218;5.158;2023-04-24T11:32:23;2.88;;;1.40;;
69754;SDS011;57023;52.218;5.158;2023-04-24T11:34:50;3.05;;;1.60;;
69754;SDS011;57023;52.218;5.158;2023-04-24T11:37:16;3.15;;;1.48;;
69754;SDS011;57023;52.218;5.158;2023-04-24T11:39:42;3.97;;;1.83;;
69754;SDS011;57023;52.218;5.158;2023-04-24T11:42:08;4.72;;;1.70;;
69754;SDS011;57023;52.218;5.158;2023-04-24T11:44:34;3.73;;;1.70;;
69754;SDS011;57023;52.218;5.158;2023-04-24T11:47:02;4.68;;;1.65;;
69754;SDS011;57023;52.218;5.158;2023-04-24T11:49:28;5.15;;;1.80;;
69754;SDS011;57023;52.218;5.158;2023-04-24T11:51:56;7.28;;;1.92;;
69754;SDS011;57023;52.218;5.158;2023-04-24T11:54:25;4.45;;;2.10;;
69754;SDS011;57023;52.218;5.158;2023-04-24T11:56:50;5.85;;;1.80;;
69754;SDS011;57023;52.218;5.158;2023-04-24T11:59:16;5.90;;;2.00;;
69754;SDS011;57023;52.218;5.158;2023-04-24T12:01:48;7.05;;;2.13;;
69754;SDS011;57023;52.218;5.158;2023-04-24T12:04:14;6.13;;;2.00;;
69754;SDS011;57023;52.218;5.158;2023-04-24T12:07:02;3.90;;;2.00;;
69754;SDS011;57023;52.218;5.158;2023-04-24T12:09:45;5.55;;;2.20;;
69754;SDS011;57023;52.218;5.158;2023-04-24T12:12:18;4.40;;;1.77;;
69754;SDS011;57023;52.218;5.158;2023-04-24T12:14:50;5.65;;;2.13;;
69754;SDS011;57023;52.218;5.158;2023-04-24T12:17:23;7.75;;;2.22;;
69754;SDS011;57023;52.218;5.158;2023-04-24T12:19:59;5.18;;;2.42;;
69754;SDS011;57023;52.218;5.158;2023-04-24T12:25:21;7.80;;;2.30;;
69754;SDS011;57023;52.218;5.158;2023-04-24T12:27:52;7.47;;;2.50;;
69754;SDS011;57023;52.218;5.158;2023-04-24T12:30:43;6.85;;;2.20;;
69754;SDS011;57023;52.218;5.158;2023-04-24T12:33:09;5.03;;;2.47;;
69754;SDS011;57023;52.218;5.158;2023-04-24T12:35:36;7.85;;;2.60;;
69754;SDS011;57023;52.218;5.158;2023-04-24T12:38:12;12.35;;;2.90;;
69754;SDS011;57023;52.218;5.158;2023-04-24T12:40:39;10.23;;;2.92;;
69754;SDS011;57023;52.218;5.158;2023-04-24T12:45:41;9.40;;;3.17;;
69754;SDS011;57023;52.218;5.158;2023-04-24T12:48:10;11.23;;;2.90;;
69754;SDS011;57023;52.218;5.158;2023-04-24T12:50:35;13.15;;;3.17;;
69754;SDS011;57023;52.218;5.158;2023-04-24T12:53:00;11.77;;;3.08;;
69754;SDS011;57023;52.218;5.158;2023-04-24T12:55:26;10.63;;;3.00;;
69754;SDS011;57023;52.218;5.158;2023-04-24T12:57:51;13.27;;;3.00;;
69754;SDS011;57023;52.218;5.158;2023-04-24T13:00:18;14.32;;;3.50;;
69754;SDS011;57023;52.218;5.158;2023-04-24T13:02:43;10.43;;;3.00;;
69754;SDS011;57023;52.218;5.158;2023-04-24T13:05:09;12.07;;;3.58;;
69754;SDS011;57023;52.218;5.158;2023-04-24T13:07:36;15.13;;;3.33;;
69754;SDS011;57023;52.218;5.158;2023-04-24T13:10:01;9.32;;;3.20;;
69754;SDS011;57023;52.218;5.158;2023-04-24T13:12:27;10.30;;;3.28;;
69754;SDS011;57023;52.218;5.158;2023-04-24T13:14:52;8.10;;;3.13;;
69754;SDS011;57023;52.218;5.158;2023-04-24T13:17:18;11.88;;;3.20;;
69754;SDS011;57023;52.218;5.158;2023-04-24T13:19:44;12.85;;;3.65;;
69754;SDS011;57023;52.218;5.158;2023-04-24T13:22:10;10.23;;;3.47;;
69754;SDS011;57023;52.218;5.158;2023-04-24T13:24:36;11.63;;;3.53;;
69754;SDS011;57023;52.218;5.158;2023-04-24T13:27:02;14.57;;;3.95;;
69754;SDS011;57023;52.218;5.158;2023-04-24T13:29:27;13.20;;;3.58;;
69754;SDS011;57023;52.218;5.158;2023-04-24T13:31:53;12.00;;;3.40;;
69754;SDS011;57023;52.218;5.158;2023-04-24T13:34:20;13.80;;;3.60;;
69754;SDS011;57023;52.218;5.158;2023-04-24T13:36:45;10.77;;;3.50;;
69754;SDS011;57023;52.218;5.158;2023-04-24T13:39:11;13.45;;;3.80;;
69754;SDS011;57023;52.218;5.158;2023-04-24T13:41:36;10.00;;;3.45;;
69754;SDS011;57023;52.218;5.158;2023-04-24T13:44:02;12.10;;;3.65;;
69754;SDS011;57023;52.218;5.158;2023-04-24T13:46:28;9.93;;;3.33;;
69754;SDS011;57023;52.218;5.158;2023-04-24T13:48:54;8.88;;;3.28;;
69754;SDS011;57023;52.218;5.158;2023-04-24T13:51:19;7.40;;;3.30;;
69754;SDS011;57023;52.218;5.158;2023-04-24T13:53:44;12.38;;;3.85;;
69754;SDS011;57023;52.218;5.158;2023-04-24T13:56:10;10.50;;;3.35;;
69754;SDS011;57023;52.218;5.158;2023-04-24T13:58:35;10.05;;;3.47;;
69754;SDS011;57023;52.218;5.158;2023-04-24T14:01:02;10.20;;;3.90;;
69754;SDS011;57023;52.218;5.158;2023-04-24T14:03:28;12.30;;;3.85;;
69754;SDS011;57023;52.218;5.158;2023-04-24T14:05:53;11.23;;;3.78;;
69754;SDS011;57023;52.218;5.158;2023-04-24T14:08:18;10.80;;;3.90;;
69754;SDS011;57023;52.218;5.158;2023-04-24T14:10:44;12.85;;;4.07;;
69754;SDS011;57023;52.218;5.158;2023-04-24T14:13:09;9.90;;;3.70;;
69754;SDS011;57023;52.218;5.158;2023-04-24T14:15:35;11.57;;;3.53;;
69754;SDS011;57023;52.218;5.158;2023-04-24T14:18:00;9.00;;;3.60;;
69754;SDS011;57023;52.218;5.158;2023-04-24T14:20:26;12.18;;;3.53;;
69754;SDS011;57023;52.218;5.158;2023-04-24T14:22:51;10.60;;;3.60;;
69754;SDS011;57023;52.218;5.158;2023-04-24T14:25:16;10.38;;;3.30;;
69754;SDS011;57023;52.218;5.158;2023-04-24T14:27:42;14.82;;;4.32;;
69754;SDS011;57023;52.218;5.158;2023-04-24T14:30:07;11.45;;;3.97;;
69754;SDS011;57023;52.218;5.158;2023-04-24T14:32:33;10.82;;;3.80;;
69754;SDS011;57023;52.218;5.158;2023-04-24T14:34:58;7.28;;;2.95;;
69754;SDS011;57023;52.218;5.158;2023-04-24T14:37:24;7.50;;;3.20;;
69754;SDS011;57023;52.218;5.158;2023-04-24T14:39:49;9.30;;;3.28;;
69754;SDS011;57023;52.218;5.158;2023-04-24T14:42:14;10.38;;;3.25;;
69754;SDS011;57023;52.218;5.158;2023-04-24T14:44:41;8.90;;;3.42;;
69754;SDS011;57023;52.218;5.158;2023-04-24T14:47:07;8.88;;;3.42;;
69754;SDS011;57023;52.218;5.158;2023-04-24T14:49:35;7.90;;;3.55;;
69754;SDS011;57023;52.218;5.158;2023-04-24T14:52:00;9.98;;;3.60;;
69754;SDS011;57023;52.218;5.158;2023-04-24T14:54:27;10.93;;;3.70;;